createdAt,value
2023-05-06T00:00:27.630Z,13.03
2023-05-06T00:02:54.473Z,12.99
2023-05-06T00:05:21.081Z,12.90
2023-05-06T00:07:47.677Z,12.93
2023-05-06T00:10:17.083Z,12.90
2023-05-06T00:12:43.865Z,12.90
2023-05-06T00:15:13.303Z,12.84
2023-05-06T00:17:39.954Z,12.84
2023-05-06T00:20:07.415Z,12.73
2023-05-06T00:22:36.467Z,12.77
2023-05-06T00:25:03.151Z,12.73
2023-05-06T00:27:29.865Z,12.66
2023-05-06T00:30:01.413Z,12.61
2023-05-06T00:32:28.107Z,12.61
2023-05-06T00:34:54.815Z,12.60
2023-05-06T00:37:21.483Z,12.55
2023-05-06T00:39:50.829Z,12.53
2023-05-06T00:42:17.430Z,12.42
2023-05-06T00:44:44.219Z,12.40
2023-05-06T00:47:10.796Z,12.42
2023-05-06T00:49:39.556Z,12.34
2023-05-06T00:52:09.047Z,12.35
2023-05-06T00:54:35.919Z,12.33
2023-05-06T00:57:02.793Z,12.29
2023-05-06T00:59:29.382Z,12.27
2023-05-06T01:01:56.097Z,12.26
2023-05-06T01:04:26.032Z,12.20
2023-05-06T01:07:03.021Z,12.17
2023-05-06T01:09:42.177Z,12.14
2023-05-06T01:12:17.905Z,12.11
2023-05-06T01:15:11.090Z,12.08
2023-05-06T01:17:50.445Z,11.98
2023-05-06T01:20:18.568Z,12.04
2023-05-06T01:22:50.005Z,11.99
2023-05-06T01:25:21.313Z,12.00
2023-05-06T01:27:50.533Z,11.90
2023-05-06T01:30:19.628Z,12.01
2023-05-06T01:32:55.330Z,12.00
2023-05-06T01:35:52.403Z,11.97
2023-05-06T01:38:31.291Z,11.95
2023-05-06T01:41:00.232Z,11.94
2023-05-06T01:43:32.735Z,11.93
2023-05-06T01:46:01.425Z,11.89
2023-05-06T01:48:33.834Z,11.90
2023-05-06T01:51:00.584Z,11.87
2023-05-06T01:53:27.123Z,11.83
2023-05-06T01:55:53.827Z,11.75
2023-05-06T01:58:20.424Z,11.80
2023-05-06T02:00:47.000Z,11.79
2023-05-06T02:03:19.159Z,11.71
2023-05-06T02:05:46.183Z,11.71
2023-05-06T02:08:13.203Z,11.70
2023-05-06T02:10:39.794Z,11.61
2023-05-06T02:13:06.559Z,11.63
2023-05-06T02:15:33.308Z,11.33
2023-05-06T02:18:00.085Z,11.60
2023-05-06T02:20:26.849Z,11.56
2023-05-06T02:22:53.403Z,11.52
2023-05-06T02:25:22.232Z,11.41
2023-05-06T02:27:48.801Z,11.50
2023-05-06T02:30:20.344Z,11.45
2023-05-06T02:32:47.317Z,11.45
2023-05-06T02:35:13.973Z,11.40
2023-05-06T02:37:40.587Z,11.42
2023-05-06T02:40:08.962Z,11.11
2023-05-06T02:42:36.009Z,11.31
2023-05-06T02:45:05.171Z,11.26
2023-05-06T02:47:31.741Z,11.31
2023-05-06T02:50:00.756Z,11.31
2023-05-06T02:52:27.312Z,11.27
2023-05-06T02:54:53.868Z,11.29
2023-05-06T02:57:25.350Z,11.06
2023-05-06T02:59:54.372Z,11.22
2023-05-06T03:02:20.978Z,11.18
2023-05-06T03:04:47.696Z,11.08
2023-05-06T03:07:14.382Z,11.17
2023-05-06T03:09:40.921Z,11.06
2023-05-06T03:12:07.512Z,11.10
2023-05-06T03:14:34.115Z,11.00
2023-05-06T03:17:00.661Z,11.09
2023-05-06T03:19:27.254Z,11.01
2023-05-06T03:21:53.793Z,11.01
2023-05-06T03:24:20.501Z,11.04
2023-05-06T03:26:49.646Z,11.02
2023-05-06T03:29:16.208Z,10.98
2023-05-06T03:31:42.783Z,10.94
2023-05-06T03:34:09.478Z,10.95
2023-05-06T03:36:36.131Z,10.86
2023-05-06T03:39:02.829Z,10.88
2023-05-06T03:41:31.923Z,10.69
2023-05-06T03:44:01.817Z,10.85
2023-05-06T03:46:30.937Z,10.87
2023-05-06T03:48:58.341Z,10.84
2023-05-06T03:51:24.983Z,10.83
2023-05-06T03:53:54.942Z,10.77
2023-05-06T03:56:22.368Z,10.82
2023-05-06T03:58:49.002Z,10.55
2023-05-06T04:01:17.240Z,10.83
2023-05-06T04:03:46.586Z,10.79
2023-05-06T04:06:13.216Z,10.79
2023-05-06T04:08:39.894Z,10.80
2023-05-06T04:11:07.881Z,10.81
2023-05-06T04:13:35.026Z,10.81
2023-05-06T04:16:01.777Z,10.81
2023-05-06T04:18:28.867Z,10.92
2023-05-06T04:20:55.529Z,10.94
2023-05-06T04:23:22.176Z,11.00
2023-05-06T04:25:48.902Z,10.95
2023-05-06T04:28:19.417Z,11.13
2023-05-06T04:30:46.655Z,11.20
2023-05-06T04:33:13.531Z,11.33
2023-05-06T04:35:40.546Z,11.40
2023-05-06T04:38:07.197Z,11.54
2023-05-06T04:40:39.386Z,11.61
2023-05-06T04:43:06.089Z,11.70
2023-05-06T04:45:37.831Z,11.84
2023-05-06T04:48:04.785Z,12.04
2023-05-06T04:50:34.786Z,12.27
2023-05-06T04:53:01.450Z,12.64
2023-05-06T04:55:30.625Z,12.98
2023-05-06T04:57:57.170Z,13.98
2023-05-06T05:00:26.286Z,14.26
2023-05-06T05:02:55.480Z,14.35
2023-05-06T05:05:22.144Z,15.07
2023-05-06T05:07:51.385Z,16.13
2023-05-06T05:10:17.962Z,16.06
2023-05-06T05:12:44.932Z,15.61
2023-05-06T05:15:11.910Z,15.39
2023-05-06T05:17:38.888Z,15.18
2023-05-06T05:20:06.414Z,14.98
2023-05-06T05:22:33.025Z,14.81
2023-05-06T05:24:59.823Z,14.58
2023-05-06T05:27:26.651Z,14.50
2023-05-06T05:29:53.246Z,14.39
2023-05-06T05:32:20.318Z,14.48
2023-05-06T05:34:47.116Z,14.35
2023-05-06T05:37:13.834Z,14.48
2023-05-06T05:39:42.472Z,14.57
2023-05-06T05:42:09.269Z,14.52
2023-05-06T05:44:35.955Z,14.41
2023-05-06T05:47:03.085Z,14.56
2023-05-06T05:49:30.107Z,14.54
2023-05-06T05:51:57.314Z,14.52
2023-05-06T05:54:24.009Z,14.50
2023-05-06T05:56:51.597Z,14.73
2023-05-06T05:59:20.749Z,14.97
2023-05-06T06:01:47.373Z,15.37
2023-05-06T06:04:14.988Z,15.71
2023-05-06T06:06:49.489Z,16.09
2023-05-06T06:09:17.242Z,16.49
2023-05-06T06:11:46.275Z,16.67
2023-05-06T06:14:12.807Z,16.96
2023-05-06T06:16:39.621Z,17.21
2023-05-06T06:19:06.609Z,17.31
2023-05-06T06:21:33.300Z,17.40
2023-05-06T06:23:59.994Z,17.40
2023-05-06T06:26:26.786Z,17.40
2023-05-06T06:28:53.390Z,17.62
2023-05-06T06:31:20.003Z,17.67
2023-05-06T06:33:46.655Z,18.52
2023-05-06T06:36:15.799Z,19.51
2023-05-06T06:38:42.494Z,22.69
2023-05-06T06:41:09.671Z,25.53
2023-05-06T06:43:36.662Z,27.38
2023-05-06T06:46:03.606Z,28.62
2023-05-06T06:48:30.439Z,29.52
2023-05-06T06:50:59.523Z,29.35
2023-05-06T06:53:30.982Z,29.74
2023-05-06T06:55:57.562Z,29.99
2023-05-06T06:58:24.372Z,30.74
2023-05-06T07:00:51.132Z,31.47
2023-05-06T07:03:19.506Z,31.98
2023-05-06T07:05:46.725Z,32.34
2023-05-06T07:08:13.358Z,32.26
2023-05-06T07:10:42.437Z,31.69
2023-05-06T07:13:09.113Z,31.01
2023-05-06T07:15:36.044Z,30.13
2023-05-06T07:18:02.754Z,29.31
2023-05-06T07:20:30.816Z,29.00
2023-05-06T07:22:57.534Z,28.92
2023-05-06T07:25:24.799Z,28.56
2023-05-06T07:27:51.440Z,28.59
2023-05-06T07:30:22.895Z,28.67
2023-05-06T07:32:49.842Z,29.10
2023-05-06T07:35:16.883Z,30.09
2023-05-06T07:37:46.346Z,30.07
2023-05-06T07:40:18.117Z,29.79
2023-05-06T07:42:45.112Z,30.14
2023-05-06T07:45:12.159Z,30.38
2023-05-06T07:47:39.132Z,30.69
2023-05-06T07:50:06.954Z,30.56
2023-05-06T07:52:36.689Z,30.85
2023-05-06T07:55:04.372Z,31.14
2023-05-06T07:57:31.022Z,31.63
2023-05-06T07:59:59.059Z,31.58
2023-05-06T08:02:32.330Z,31.18
2023-05-06T08:04:59.387Z,30.69
2023-05-06T08:07:28.336Z,30.78
2023-05-06T08:09:54.995Z,30.76
2023-05-06T08:12:21.862Z,31.40
2023-05-06T08:14:48.657Z,30.81
2023-05-06T08:17:15.497Z,29.69
2023-05-06T08:19:42.197Z,29.52
2023-05-06T08:22:09.003Z,29.08
2023-05-06T08:24:35.826Z,29.61
2023-05-06T08:27:03.000Z,30.64
2023-05-06T08:29:29.732Z,31.20
2023-05-06T08:31:58.897Z,31.38
2023-05-06T08:34:25.644Z,31.37
2023-05-06T08:36:52.868Z,31.72
2023-05-06T08:39:19.462Z,31.96
2023-05-06T08:41:52.435Z,32.22
2023-05-06T08:44:23.175Z,32.14
2023-05-06T08:46:50.285Z,31.67
2023-05-06T08:49:19.657Z,31.21
2023-05-06T08:51:47.737Z,30.75
2023-05-06T08:54:17.509Z,30.58
2023-05-06T08:56:48.433Z,30.32
2023-05-06T08:59:17.253Z,30.45
2023-05-06T09:01:44.108Z,30.40
2023-05-06T09:04:11.248Z,29.11
2023-05-06T09:06:38.629Z,29.97
2023-05-06T09:09:06.626Z,30.25
2023-05-06T09:11:33.310Z,30.28
2023-05-06T09:14:08.084Z,30.26
2023-05-06T09:16:34.929Z,30.60
2023-05-06T09:19:03.766Z,30.33
2023-05-06T09:21:36.605Z,30.40
2023-05-06T09:24:07.992Z,30.22
2023-05-06T09:26:36.557Z,29.58
2023-05-06T09:29:09.167Z,29.64
2023-05-06T09:31:44.886Z,29.59
2023-05-06T09:34:12.603Z,29.51
2023-05-06T09:36:39.717Z,29.41
2023-05-06T09:39:06.929Z,29.46
2023-05-06T09:41:33.621Z,29.38
2023-05-06T09:44:00.476Z,29.23
2023-05-06T09:46:33.174Z,28.96
2023-05-06T09:49:00.612Z,28.74
2023-05-06T09:51:31.027Z,28.66
2023-05-06T09:53:59.324Z,28.54
2023-05-06T09:56:33.495Z,28.73
2023-05-06T09:59:04.223Z,28.35
2023-05-06T10:01:36.698Z,27.79
2023-05-06T10:04:08.844Z,27.44
2023-05-06T10:06:39.530Z,27.28
2023-05-06T10:09:10.490Z,27.34
2023-05-06T10:11:37.647Z,26.60
2023-05-06T10:14:06.781Z,26.03
2023-05-06T10:16:36.328Z,25.95
2023-05-06T10:19:04.842Z,26.27
2023-05-06T10:21:34.290Z,26.45
2023-05-06T10:24:07.449Z,26.71
2023-05-06T10:26:38.397Z,26.96
2023-05-06T10:29:10.317Z,27.20
2023-05-06T10:31:46.366Z,27.31
2023-05-06T10:34:16.674Z,27.46
2023-05-06T10:36:46.706Z,27.40
2023-05-06T10:39:14.344Z,27.03
2023-05-06T10:41:41.341Z,27.33
2023-05-06T10:44:10.033Z,27.61
2023-05-06T10:47:01.929Z,27.78
2023-05-06T10:49:29.136Z,27.88
2023-05-06T10:52:17.400Z,28.22
2023-05-06T10:54:51.905Z,28.40
2023-05-06T10:57:20.870Z,28.62
2023-05-06T10:59:51.358Z,28.84
2023-05-06T11:02:22.262Z,29.02
2023-05-06T11:05:00.631Z,28.83
2023-05-06T11:07:27.547Z,28.66
2023-05-06T11:10:02.151Z,28.55
2023-05-06T11:12:51.658Z,28.55
2023-05-06T11:15:26.631Z,28.06
2023-05-06T11:17:55.710Z,28.42
2023-05-06T11:20:25.506Z,28.35
2023-05-06T11:22:53.734Z,28.28
2023-05-06T11:25:40.903Z,28.22
2023-05-06T11:28:12.382Z,28.22
2023-05-06T11:30:44.979Z,28.45
2023-05-06T11:33:22.066Z,28.60
2023-05-06T11:35:48.635Z,28.60
2023-05-06T11:38:15.320Z,28.65
2023-05-06T11:40:42.677Z,28.77
2023-05-06T11:43:14.168Z,28.78
2023-05-06T11:45:48.000Z,28.71
2023-05-06T11:48:15.882Z,28.51
2023-05-06T11:50:49.842Z,28.25
2023-05-06T11:53:21.556Z,28.56
2023-05-06T11:55:49.197Z,28.50
2023-05-06T11:58:17.179Z,28.54
2023-05-06T12:01:03.772Z,28.41
2023-05-06T12:03:32.697Z,28.42
2023-05-06T12:06:02.100Z,28.39
2023-05-06T12:08:32.622Z,28.26
2023-05-06T12:11:05.024Z,28.19
2023-05-06T12:13:32.476Z,28.41
2023-05-06T12:16:02.475Z,28.55
2023-05-06T12:18:31.835Z,28.47
2023-05-06T12:21:06.106Z,28.54
2023-05-06T12:23:35.037Z,28.73
2023-05-06T12:26:04.231Z,28.81
2023-05-06T12:28:32.667Z,28.60
2023-05-06T12:31:17.498Z,28.10
2023-05-06T12:33:46.351Z,28.04
2023-05-06T12:36:13.061Z,28.08
2023-05-06T12:38:49.369Z,28.25
2023-05-06T12:41:16.165Z,28.33
2023-05-06T12:43:42.770Z,28.42
2023-05-06T12:46:12.550Z,28.38
2023-05-06T12:48:39.433Z,28.43
2023-05-06T12:51:32.729Z,28.47
2023-05-06T12:53:59.618Z,28.52
2023-05-06T12:56:29.388Z,28.40
2023-05-06T12:59:01.364Z,28.13
2023-05-06T13:01:31.413Z,27.87
2023-05-06T13:03:58.501Z,27.90
2023-05-06T13:06:25.338Z,28.02
2023-05-06T13:08:51.963Z,28.01
2023-05-06T13:11:18.568Z,28.07
2023-05-06T13:13:47.765Z,28.05
2023-05-06T13:16:14.356Z,28.09
2023-05-06T13:18:43.362Z,28.11
2023-05-06T13:21:14.061Z,28.16
2023-05-06T13:23:47.460Z,28.01
2023-05-06T13:26:15.027Z,27.98
2023-05-06T13:28:41.948Z,27.70
2023-05-06T13:31:08.522Z,27.83
2023-05-06T13:33:38.541Z,27.84
2023-05-06T13:36:10.575Z,27.72
2023-05-06T13:38:37.160Z,27.70
2023-05-06T13:41:03.870Z,27.71
2023-05-06T13:43:35.006Z,27.83
2023-05-06T13:46:04.026Z,27.71
2023-05-06T13:48:30.726Z,27.72
2023-05-06T13:50:57.689Z,27.72
2023-05-06T13:53:24.326Z,27.82
2023-05-06T13:55:50.844Z,27.87
2023-05-06T13:58:19.657Z,27.85
2023-05-06T14:00:48.686Z,27.81
2023-05-06T14:03:15.233Z,27.83
2023-05-06T14:05:42.279Z,27.87
2023-05-06T14:08:09.094Z,27.90
2023-05-06T14:10:35.688Z,27.88
2023-05-06T14:13:06.920Z,27.75
2023-05-06T14:15:33.974Z,27.76
2023-05-06T14:18:03.892Z,27.71
2023-05-06T14:20:30.786Z,27.63
2023-05-06T14:22:59.723Z,27.66
2023-05-06T14:25:28.668Z,27.83
2023-05-06T14:27:58.100Z,27.95
2023-05-06T14:30:25.891Z,27.55
2023-05-06T14:32:52.638Z,27.57
2023-05-06T14:35:19.342Z,27.53
2023-05-06T14:37:46.180Z,27.36
2023-05-06T14:40:16.267Z,27.19
2023-05-06T14:42:42.972Z,27.01
2023-05-06T14:45:10.137Z,27.26
2023-05-06T14:47:37.053Z,27.19
2023-05-06T14:50:03.874Z,27.18
2023-05-06T14:52:31.402Z,27.25
2023-05-06T14:54:58.063Z,27.19
2023-05-06T14:57:24.638Z,27.13
2023-05-06T14:59:54.094Z,27.07
2023-05-06T15:02:21.167Z,26.97
2023-05-06T15:04:52.464Z,27.03
2023-05-06T15:07:19.414Z,27.00
2023-05-06T15:09:45.976Z,26.94
2023-05-06T15:12:15.722Z,26.87
2023-05-06T15:14:44.594Z,26.80
2023-05-06T15:17:12.115Z,26.68
2023-05-06T15:19:40.983Z,26.59
2023-05-06T15:22:12.353Z,26.53
2023-05-06T15:24:39.109Z,26.42
2023-05-06T15:27:05.941Z,26.37
2023-05-06T15:29:32.847Z,26.32
2023-05-06T15:32:04.556Z,26.26
2023-05-06T15:34:31.265Z,26.32
2023-05-06T15:37:01.833Z,26.25
2023-05-06T15:39:28.694Z,26.27
2023-05-06T15:41:58.323Z,26.20
2023-05-06T15:44:27.298Z,26.20
2023-05-06T15:46:53.933Z,26.23
2023-05-06T15:49:48.945Z,26.17
2023-05-06T15:52:07.241Z,26.11
2023-05-06T15:54:37.564Z,26.03
2023-05-06T15:57:09.783Z,25.96
2023-05-06T15:59:36.419Z,25.89
2023-05-06T16:04:38.974Z,25.72
2023-05-06T16:07:05.770Z,25.60
2023-05-06T16:09:32.559Z,25.28
2023-05-06T16:12:01.620Z,24.86
2023-05-06T16:14:28.453Z,24.54
2023-05-06T16:16:55.068Z,23.93
2023-05-06T16:19:22.242Z,23.73
2023-05-06T16:21:51.448Z,23.18
2023-05-06T16:24:18.061Z,23.07
2023-05-06T16:26:44.885Z,22.81
2023-05-06T16:29:11.644Z,22.52
2023-05-06T16:31:38.453Z,22.17
2023-05-06T16:34:05.169Z,22.10
2023-05-06T16:36:34.184Z,21.80
2023-05-06T16:39:01.003Z,21.72
2023-05-06T16:41:27.988Z,21.68
2023-05-06T16:43:54.725Z,21.59
2023-05-06T16:46:24.772Z,21.59
2023-05-06T16:48:51.843Z,21.57
2023-05-06T16:51:18.505Z,21.56
2023-05-06T16:53:48.097Z,21.51
2023-05-06T16:56:14.689Z,21.45
2023-05-06T16:58:42.620Z,21.47
2023-05-06T17:01:09.795Z,21.41
2023-05-06T17:03:40.440Z,21.35
2023-05-06T17:06:07.839Z,21.24
2023-05-06T17:08:38.333Z,21.15
2023-05-06T17:11:08.588Z,21.06
2023-05-06T17:13:37.666Z,20.90
2023-05-06T17:16:04.778Z,21.02
2023-05-06T17:18:31.373Z,20.99
2023-05-06T17:20:57.997Z,20.92
2023-05-06T17:23:25.261Z,20.82
2023-05-06T17:25:51.986Z,20.88
2023-05-06T17:28:25.842Z,20.84
2023-05-06T17:30:59.496Z,20.82
2023-05-06T17:33:26.132Z,20.78
2023-05-06T17:35:52.660Z,20.72
2023-05-06T17:38:19.414Z,20.47
2023-05-06T17:40:45.976Z,20.63
2023-05-06T17:43:12.774Z,20.53
2023-05-06T17:45:43.206Z,20.49
2023-05-06T17:48:09.857Z,20.45
2023-05-06T17:50:36.472Z,20.35
2023-05-06T17:53:05.367Z,20.34
2023-05-06T17:55:31.992Z,20.32
2023-05-06T17:57:58.633Z,20.20
2023-05-06T18:00:25.765Z,20.14
2023-05-06T18:02:53.071Z,20.17
2023-05-06T18:05:19.834Z,20.14
2023-05-06T18:07:46.753Z,20.08
2023-05-06T18:10:13.835Z,20.09
2023-05-06T18:12:40.616Z,20.07
2023-05-06T18:15:08.528Z,19.89
2023-05-06T18:17:35.671Z,20.01
2023-05-06T18:20:02.433Z,19.92
2023-05-06T18:22:29.117Z,19.91
2023-05-06T18:24:56.085Z,19.62
2023-05-06T18:27:23.194Z,19.83
2023-05-06T18:29:53.079Z,19.80
2023-05-06T18:32:19.913Z,19.55
2023-05-06T18:34:49.160Z,19.46
2023-05-06T18:37:15.828Z,19.47
2023-05-06T18:39:45.538Z,19.42
2023-05-06T18:42:15.141Z,19.41
2023-05-06T18:44:43.158Z,19.43
2023-05-06T18:47:09.730Z,19.35
2023-05-06T18:49:38.851Z,19.41
2023-05-06T18:52:05.960Z,19.38
2023-05-06T18:54:32.688Z,19.33
2023-05-06T18:57:02.687Z,19.23
2023-05-06T18:59:29.494Z,19.13
2023-05-06T19:01:56.124Z,19.09
2023-05-06T19:04:25.126Z,19.09
2023-05-06T19:07:01.487Z,18.99
2023-05-06T19:09:28.358Z,19.01
2023-05-06T19:11:55.824Z,19.06
2023-05-06T19:14:25.867Z,19.06
2023-05-06T19:16:55.038Z,19.03
2023-05-06T19:19:21.919Z,19.00
2023-05-06T19:21:51.138Z,18.98
2023-05-06T19:24:22.973Z,19.01
2023-05-06T19:26:49.550Z,18.98
2023-05-06T19:29:16.159Z,18.91
2023-05-06T19:31:42.744Z,18.91
2023-05-06T19:34:09.371Z,18.86
2023-05-06T19:36:36.014Z,18.80
2023-05-06T19:39:02.581Z,18.84
2023-05-06T19:41:29.446Z,18.82
2023-05-06T19:43:58.529Z,18.74
2023-05-06T19:46:27.611Z,18.70
2023-05-06T19:48:54.184Z,18.66
2023-05-06T19:51:20.971Z,18.57
2023-05-06T19:53:49.115Z,18.60
2023-05-06T19:56:17.200Z,18.60
2023-05-06T19:58:44.394Z,18.56
2023-05-06T20:01:11.000Z,18.53
2023-05-06T20:03:38.060Z,18.57
2023-05-06T20:06:05.176Z,18.59
2023-05-06T20:08:31.953Z,18.53
2023-05-06T20:10:58.507Z,18.55
2023-05-06T20:13:29.989Z,18.53
2023-05-06T20:16:02.127Z,18.50
2023-05-06T20:18:28.830Z,18.47
2023-05-06T20:20:58.504Z,18.47
2023-05-06T20:23:25.956Z,18.43
2023-05-06T20:25:53.433Z,18.39
2023-05-06T20:28:20.243Z,18.21
2023-05-06T20:30:48.495Z,18.42
2023-05-06T20:33:17.339Z,18.30
2023-05-06T20:35:46.902Z,18.36
2023-05-06T20:38:17.222Z,18.26
2023-05-06T20:40:50.157Z,18.23
2023-05-06T20:43:17.312Z,18.31
2023-05-06T20:45:44.436Z,18.26
2023-05-06T20:48:12.915Z,18.25
2023-05-06T20:50:41.311Z,18.21
2023-05-06T20:53:10.740Z,18.21
2023-05-06T20:55:37.966Z,18.19
2023-05-06T20:58:05.583Z,17.95
2023-05-06T21:00:34.602Z,18.00
2023-05-06T21:03:05.335Z,17.94
2023-05-06T21:05:32.793Z,18.02
2023-05-06T21:07:59.735Z,17.60
2023-05-06T21:10:26.549Z,17.89
2023-05-06T21:12:53.521Z,17.73
2023-05-06T21:15:22.755Z,17.77
2023-05-06T21:17:51.970Z,17.62
2023-05-06T21:20:19.604Z,17.68
2023-05-06T21:22:46.638Z,17.64
2023-05-06T21:25:13.803Z,17.58
2023-05-06T21:27:40.699Z,17.48
2023-05-06T21:30:09.166Z,17.40
2023-05-06T21:32:36.283Z,17.44
2023-05-06T21:35:03.573Z,17.28
2023-05-06T21:37:30.561Z,17.26
2023-05-06T21:40:02.854Z,17.26
2023-05-06T21:42:30.358Z,17.24
2023-05-06T21:45:02.659Z,17.14
2023-05-06T21:47:29.730Z,17.16
2023-05-06T21:49:59.865Z,17.19
2023-05-06T21:52:27.058Z,17.07
2023-05-06T21:54:56.493Z,17.04
2023-05-06T21:57:27.589Z,17.10
2023-05-06T21:59:54.844Z,17.13
2023-05-06T22:02:24.846Z,17.10
2023-05-06T22:04:51.843Z,16.97
2023-05-06T22:07:21.256Z,17.05
2023-05-06T22:09:48.467Z,17.01
2023-05-06T22:12:17.688Z,16.82
2023-05-06T22:14:44.938Z,16.93
2023-05-06T22:17:19.201Z,16.82
2023-05-06T22:19:47.004Z,16.79
2023-05-06T22:22:17.240Z,16.15
2023-05-06T22:24:44.244Z,16.54
2023-05-06T22:27:11.659Z,16.62
2023-05-06T22:29:38.603Z,16.53
2023-05-06T22:32:09.373Z,16.45
2023-05-06T22:34:41.288Z,16.50
2023-05-06T22:37:13.630Z,16.38
2023-05-06T22:39:41.065Z,16.33
2023-05-06T22:42:08.800Z,16.31
2023-05-06T22:44:36.118Z,16.25
2023-05-06T22:47:05.811Z,16.16
2023-05-06T22:49:32.968Z,15.96
2023-05-06T22:52:00.044Z,15.99
2023-05-06T22:54:29.571Z,16.02
2023-05-06T22:56:59.141Z,15.84
2023-05-06T22:59:26.229Z,15.93
2023-05-06T23:01:53.398Z,15.91
2023-05-06T23:04:20.539Z,15.77
2023-05-06T23:06:50.147Z,15.62
2023-05-06T23:09:19.899Z,15.66
2023-05-06T23:11:48.993Z,15.68
2023-05-06T23:14:18.164Z,15.64
2023-05-06T23:16:48.204Z,15.60
2023-05-06T23:19:14.998Z,15.52
2023-05-06T23:21:43.921Z,15.37
2023-05-06T23:24:11.633Z,15.36
2023-05-06T23:26:40.589Z,15.34
2023-05-06T23:29:10.376Z,15.33
2023-05-06T23:31:37.282Z,15.32
2023-05-06T23:34:07.523Z,15.21
2023-05-06T23:36:34.449Z,15.28
2023-05-06T23:39:11.591Z,15.29
2023-05-06T23:41:38.626Z,15.24
2023-05-06T23:44:06.590Z,15.13
2023-05-06T23:46:33.506Z,15.25
2023-05-06T23:49:00.620Z,15.23
2023-05-06T23:51:29.888Z,15.25
2023-05-06T23:53:56.897Z,15.40
2023-05-06T23:56:26.693Z,15.39
2023-05-06T23:58:55.674Z,15.28
